Time;durP1;ratioP1;P1;durP2;ratioP2;P2;SDS_P1;SDS_P2;PMS_P1;PMS_P2;Temp;Humidity;BMP_temperature;BMP_pressure;BME280_temperature;BME280_humidity;BME280_pressure;Samples;Min_cycle;Max_cycle;Signal;HPM_P1;HPM_P2
2022/01/02 00:01:44;;;;;;;;;;;11.50;99.90;;;;;;5096243;28;19946;-76
2022/01/02 00:04:14;;;;;;;;;;;11.50;99.90;;;;;;5096129;28;20348;-76
2022/01/02 00:06:44;;;;;;;;;;;11.50;99.90;;;;;;5094624;28;20284;-74
2022/01/02 00:09:13;;;;;;;;;;;11.60;99.90;;;;;;5095360;28;19924;-76
2022/01/02 00:11:40;;;;;;;;;;;11.40;99.90;;;;;;5095802;28;19931;-74
2022/01/02 00:14:07;;;;;;;;;;;11.40;99.90;;;;;;5095636;28;20050;-74
2022/01/02 00:16:34;;;;;;;;;;;11.30;99.90;;;;;;5095851;28;19981;-74
2022/01/02 00:19:07;;;;;;;;;;;11.50;99.90;;;;;;5095754;28;20378;-75
2022/01/02 00:21:34;;;;;;;;;;;11.30;99.90;;;;;;5095583;28;19920;-74
2022/01/02 00:24:06;;;;;;;;;;;11.30;99.90;;;;;;5095623;28;19931;-75
2022/01/02 00:26:40;;;;;;;;;;;12.10;99.90;;;;;;5095486;28;19920;-76
2022/01/02 00:29:06;;;;;;;;;;;12.50;99.90;;;;;;5095296;28;19927;-76
2022/01/02 00:31:35;;;;;;;;;;;11.20;99.90;;;;;;5094177;28;20298;-75
2022/01/02 00:34:02;;;;;;;;;;;11.20;99.90;;;;;;5094534;28;20019;-75
2022/01/02 00:36:33;;;;;;;;;;;11.20;99.90;;;;;;5095239;28;19920;-75
2022/01/02 00:38:59;;;;;;;;;;;11.10;99.90;;;;;;5095255;28;20013;-77
2022/01/02 00:41:47;;;;;;;;;;;11.20;99.90;;;;;;5093659;28;20371;-75
2022/01/02 00:44:37;;;;;;;;;;;11.20;99.90;;;;;;5084050;28;19977;-76
2022/01/02 00:47:26;;;;;;;;;;;11.10;99.90;;;;;;5094311;28;19920;-76
2022/01/02 00:50:19;;;;;;;;;;;11.10;99.90;;;;;;4996439;28;20032;-75
2022/01/02 00:52:46;;;;;;;;;;;11.10;99.90;;;;;;5010173;28;19921;-77
2022/01/02 00:55:22;;;;;;;;;;;12.30;99.90;;;;;;4996424;28;20365;-76
2022/01/02 00:57:53;;;;;;;;;;;11.00;99.90;;;;;;5012894;28;20007;-75
2022/01/02 01:00:19;;;;;;;;;;;11.00;99.90;;;;;;5012527;28;19925;-75
2022/01/02 01:02:49;;;;;;;;;;;11.00;99.90;;;;;;5012754;28;20012;-75
2022/01/02 01:05:17;;;;;;;;;;;11.00;99.90;;;;;;4996416;28;20024;-77
2022/01/02 01:07:46;;;;;;;;;;;11.00;99.90;;;;;;5012569;28;19921;-78
2022/01/02 01:10:11;;;;;;;;;;;10.90;99.90;;;;;;5012553;28;20464;-76
2022/01/02 01:12:37;;;;;;;;;;;10.90;99.90;;;;;;4996523;28;20008;-76
2022/01/02 01:15:05;;;;;;;;;;;11.00;99.90;;;;;;5012495;28;19921;-77
2022/01/02 01:17:31;;;;;;;;;;;10.90;99.90;;;;;;5012515;28;19961;-77
2022/01/02 01:19:57;;;;;;;;;;;11.00;99.90;;;;;;5012427;28;19937;-77
2022/01/02 01:22:23;;;;;;;;;;;10.90;99.90;;;;;;5012491;28;19983;-74
2022/01/02 01:24:49;;;;;;;;;;;10.90;99.90;;;;;;4995625;28;19929;-76
2022/01/02 01:27:14;;;;;;;;;;;10.90;99.90;;;;;;5067300;28;19965;-76
2022/01/02 01:29:40;;;;;;;;;;;10.90;99.90;;;;;;5094191;28;19927;-76
2022/01/02 01:32:07;;;;;;;;;;;11.10;99.90;;;;;;5094539;28;19972;-75
2022/01/02 01:34:32;;;;;;;;;;;10.90;99.90;;;;;;5094376;28;19920;-75
2022/01/02 01:36:58;;;;;;;;;;;10.90;99.90;;;;;;5094264;28;19965;-75
2022/01/02 01:39:24;;;;;;;;;;;10.90;99.90;;;;;;5094195;28;19924;-76
2022/01/02 01:41:52;;;;;;;;;;;11.00;99.90;;;;;;5093250;28;19988;-78
2022/01/02 01:46:44;;;;;;;;;;;10.90;99.90;;;;;;5094230;28;19920;-76
2022/01/02 01:49:21;;;;;;;;;;;10.90;99.90;;;;;;5094160;28;19931;-76
2022/01/02 01:51:47;;;;;;;;;;;10.90;99.90;;;;;;5093880;28;20389;-77
2022/01/02 01:54:13;;;;;;;;;;;10.90;99.90;;;;;;5093972;28;19920;-76
2022/01/02 01:56:39;;;;;;;;;;;10.90;99.90;;;;;;5093912;28;19920;-77
2022/01/02 01:59:05;;;;;;;;;;;10.90;99.90;;;;;;5093896;28;19924;-77
2022/01/02 02:01:31;;;;;;;;;;;10.90;99.90;;;;;;5094033;28;19974;-76
2022/01/02 02:03:57;;;;;;;;;;;10.90;99.90;;;;;;5093043;28;19920;-76
2022/01/02 02:06:22;;;;;;;;;;;10.90;99.90;;;;;;5093963;28;19920;-76
2022/01/02 02:08:50;;;;;;;;;;;11.10;99.90;;;;;;5092417;28;19920;-76
2022/01/02 02:11:16;;;;;;;;;;;10.80;99.90;;;;;;5093783;28;19924;-76
2022/01/02 02:13:42;;;;;;;;;;;10.80;99.90;;;;;;5093156;28;20019;-76
2022/01/02 02:16:07;;;;;;;;;;;10.80;99.90;;;;;;5093049;28;19966;-76
2022/01/02 02:18:34;;;;;;;;;;;10.80;99.90;;;;;;5093812;28;20287;-76
2022/01/02 02:21:00;;;;;;;;;;;10.80;99.90;;;;;;5092468;28;20451;-78
2022/01/02 02:23:26;;;;;;;;;;;10.80;99.90;;;;;;5093727;28;19920;-74
2022/01/02 02:25:52;;;;;;;;;;;10.70;99.90;;;;;;5093624;28;20065;-76
2022/01/02 02:28:17;;;;;;;;;;;10.80;99.90;;;;;;5093581;28;19927;-77
2022/01/02 02:30:44;;;;;;;;;;;10.70;99.90;;;;;;5093674;28;20348;-75
2022/01/02 02:33:11;;;;;;;;;;;10.70;99.90;;;;;;5093670;28;19990;-75
2022/01/02 02:35:38;;;;;;;;;;;10.70;99.90;;;;;;5093705;28;19920;-74
2022/01/02 02:38:05;;;;;;;;;;;11.40;99.90;;;;;;5093452;28;19927;-77
2022/01/02 02:40:30;;;;;;;;;;;10.70;99.90;;;;;;5093595;28;19920;-76
2022/01/02 02:43:18;;;;;;;;;;;11.80;99.90;;;;;;5092445;28;19920;-76
2022/01/02 02:54:06;;;;;;;;;;;10.80;99.90;;;;;;5089545;28;19920;-76
2022/01/02 02:59:07;;;;;;;;;;;10.40;99.90;;;;;;5093396;28;19927;-76
2022/01/02 03:01:33;;;;;;;;;;;10.80;99.90;;;;;;5093563;28;20065;-75
2022/01/02 03:03:59;;;;;;;;;;;10.80;99.90;;;;;;5093248;28;19920;-77
2022/01/02 03:06:25;;;;;;;;;;;10.70;99.90;;;;;;5093478;28;20068;-76
2022/01/02 03:08:51;;;;;;;;;;;10.70;99.90;;;;;;5093320;28;19920;-75
2022/01/02 03:11:20;;;;;;;;;;;10.70;99.90;;;;;;5093385;28;19927;-74
2022/01/02 03:13:46;;;;;;;;;;;10.80;99.90;;;;;;5093247;28;19927;-76
2022/01/02 03:16:12;;;;;;;;;;;10.70;99.90;;;;;;5075437;28;20318;-76
2022/01/02 03:18:38;;;;;;;;;;;10.70;99.90;;;;;;5093226;28;19920;-77
2022/01/02 03:21:04;;;;;;;;;;;10.70;99.90;;;;;;5093066;28;19920;-76
2022/01/02 03:23:29;;;;;;;;;;;10.70;99.90;;;;;;5092296;28;20007;-77
2022/01/02 03:25:55;;;;;;;;;;;10.70;99.90;;;;;;5096082;28;20010;-76
2022/01/02 03:28:21;;;;;;;;;;;10.70;99.90;;;;;;5095853;28;19980;-75
2022/01/02 03:30:46;;;;;;;;;;;10.70;99.90;;;;;;5096701;28;19927;-77
2022/01/02 03:33:12;;;;;;;;;;;10.70;99.90;;;;;;5095640;28;20382;-76
2022/01/02 03:35:38;;;;;;;;;;;11.30;99.90;;;;;;5096506;28;20022;-77
2022/01/02 03:38:03;;;;;;;;;;;10.80;99.90;;;;;;5095252;28;19920;-75
2022/01/02 03:40:29;;;;;;;;;;;10.70;99.90;;;;;;5095401;28;19978;-75
2022/01/02 03:42:55;;;;;;;;;;;10.80;99.90;;;;;;5096522;28;19920;-75
2022/01/02 03:45:21;;;;;;;;;;;10.80;99.90;;;;;;5095518;28;19927;-74
2022/01/02 03:47:46;;;;;;;;;;;11.10;99.90;;;;;;5096359;28;20049;-76
2022/01/02 03:50:12;;;;;;;;;;;10.80;99.90;;;;;;5096011;28;20003;-77
2022/01/02 03:52:38;;;;;;;;;;;10.80;99.90;;;;;;5096294;28;20359;-77
2022/01/02 03:55:04;;;;;;;;;;;10.80;99.90;;;;;;5096357;28;19920;-77
2022/01/02 03:57:30;;;;;;;;;;;10.80;99.90;;;;;;5095345;28;19924;-76
2022/01/02 03:59:55;;;;;;;;;;;10.80;99.90;;;;;;5096058;28;20271;-75
2022/01/02 04:02:21;;;;;;;;;;;10.90;99.90;;;;;;5096093;28;19986;-74
2022/01/02 04:04:46;;;;;;;;;;;10.90;99.90;;;;;;5095013;28;20355;-74
2022/01/02 04:07:12;;;;;;;;;;;11.30;99.90;;;;;;5094781;28;20283;-75
2022/01/02 04:09:37;;;;;;;;;;;10.80;99.90;;;;;;5096020;28;19920;-77
2022/01/02 04:12:03;;;;;;;;;;;10.80;99.90;;;;;;5095948;28;19920;-74
2022/01/02 04:14:29;;;;;;;;;;;10.80;99.90;;;;;;5095862;28;19981;-75
2022/01/02 04:16:54;;;;;;;;;;;10.80;99.90;;;;;;5095878;28;19919;-74
2022/01/02 04:19:20;;;;;;;;;;;10.80;99.90;;;;;;5095687;28;20276;-75
2022/01/02 04:21:46;;;;;;;;;;;10.90;99.90;;;;;;5094533;28;20010;-76
2022/01/02 04:24:11;;;;;;;;;;;10.90;99.90;;;;;;5095807;28;19927;-75
2022/01/02 04:26:37;;;;;;;;;;;10.90;99.90;;;;;;5094664;28;20294;-75
2022/01/02 04:29:03;;;;;;;;;;;10.80;99.90;;;;;;5094659;28;20404;-76
2022/01/02 04:31:28;;;;;;;;;;;11.00;99.90;;;;;;5095403;28;19920;-75
2022/01/02 04:33:54;;;;;;;;;;;10.90;99.90;;;;;;5095442;28;19966;-77
2022/01/02 04:36:19;;;;;;;;;;;11.00;99.90;;;;;;5094909;28;19924;-75
2022/01/02 04:38:45;;;;;;;;;;;11.00;99.90;;;;;;5095184;28;19920;-76
2022/01/02 04:41:11;;;;;;;;;;;11.00;99.90;;;;;;5095234;28;20267;-75
2022/01/02 04:43:37;;;;;;;;;;;11.00;99.90;;;;;;5095381;28;19920;-77
2022/01/02 04:46:02;;;;;;;;;;;11.10;99.90;;;;;;5095260;28;19927;-77
2022/01/02 04:48:28;;;;;;;;;;;11.00;99.90;;;;;;5095276;28;19920;-77
2022/01/02 04:50:53;;;;;;;;;;;11.00;99.90;;;;;;5094814;28;19920;-77
2022/01/02 04:53:22;;;;;;;;;;;11.00;99.90;;;;;;5094912;28;19931;-75
2022/01/02 04:55:48;;;;;;;;;;;11.00;99.90;;;;;;5095153;28;19920;-78
2022/01/02 04:58:13;;;;;;;;;;;11.00;99.90;;;;;;5095105;28;19924;-77
2022/01/02 05:00:39;;;;;;;;;;;11.90;99.90;;;;;;5095048;28;19977;-75
2022/01/02 05:03:05;;;;;;;;;;;11.10;99.90;;;;;;5093864;28;20272;-77
2022/01/02 05:05:30;;;;;;;;;;;11.00;99.90;;;;;;5094841;28;20362;-76
2022/01/02 05:07:56;;;;;;;;;;;11.00;99.90;;;;;;5093727;28;20328;-75
2022/01/02 05:10:21;;;;;;;;;;;11.00;99.90;;;;;;5095044;28;19927;-76
2022/01/02 05:12:47;;;;;;;;;;;11.00;99.90;;;;;;5094811;28;20023;-77
2022/01/02 05:15:12;;;;;;;;;;;11.00;99.90;;;;;;5093787;28;19920;-78
2022/01/02 05:17:38;;;;;;;;;;;10.90;99.90;;;;;;5094690;28;20298;-76
2022/01/02 05:20:04;;;;;;;;;;;11.00;99.90;;;;;;5094555;28;20335;-75
2022/01/02 05:22:30;;;;;;;;;;;11.00;99.90;;;;;;5094443;28;19923;-75
2022/01/02 05:24:55;;;;;;;;;;;10.90;99.90;;;;;;5094362;28;19934;-75
2022/01/02 05:27:21;;;;;;;;;;;10.90;99.90;;;;;;5094521;28;19920;-75
2022/01/02 05:29:46;;;;;;;;;;;10.90;99.90;;;;;;5094210;28;20013;-77
2022/01/02 05:32:12;;;;;;;;;;;10.90;99.90;;;;;;5094459;28;19965;-75
2022/01/02 05:34:38;;;;;;;;;;;10.90;99.90;;;;;;5094312;28;19920;-75
2022/01/02 05:37:03;;;;;;;;;;;11.10;99.90;;;;;;5094267;28;19923;-74
2022/01/02 05:39:29;;;;;;;;;;;11.60;99.90;;;;;;5093136;28;20102;-77
2022/01/02 05:41:54;;;;;;;;;;;11.00;99.90;;;;;;5094342;28;19924;-77
2022/01/02 05:44:20;;;;;;;;;;;11.00;99.90;;;;;;5094353;28;19926;-75
2022/01/02 05:46:46;;;;;;;;;;;11.00;99.90;;;;;;5092358;28;19942;-74
2022/01/02 05:49:12;;;;;;;;;;;11.00;99.90;;;;;;5094069;28;20018;-77
2022/01/02 05:51:38;;;;;;;;;;;11.00;99.90;;;;;;5092825;28;20358;-76
2022/01/02 05:54:04;;;;;;;;;;;11.00;99.90;;;;;;5093849;28;19927;-74
2022/01/02 05:56:30;;;;;;;;;;;11.00;99.90;;;;;;5093861;28;20010;-75
2022/01/02 05:58:56;;;;;;;;;;;11.00;99.90;;;;;;5094100;28;19977;-77
2022/01/02 06:01:22;;;;;;;;;;;11.00;99.90;;;;;;5093927;28;19920;-75
2022/01/02 06:03:47;;;;;;;;;;;11.00;99.90;;;;;;5093861;28;19926;-76
2022/01/02 06:06:13;;;;;;;;;;;11.00;99.90;;;;;;5093924;28;19985;-77
2022/01/02 06:08:39;;;;;;;;;;;11.90;99.90;;;;;;5093648;28;19927;-76
2022/01/02 06:11:05;;;;;;;;;;;11.00;99.90;;;;;;5092530;28;19959;-76
2022/01/02 06:13:30;;;;;;;;;;;11.00;99.90;;;;;;5093854;28;20308;-74
2022/01/02 06:15:56;;;;;;;;;;;11.00;99.90;;;;;;5093767;28;20391;-74
2022/01/02 06:18:21;;;;;;;;;;;11.00;99.90;;;;;;5093787;28;19967;-75
2022/01/02 06:20:47;;;;;;;;;;;11.10;99.90;;;;;;5093725;28;19920;-77
2022/01/02 06:23:13;;;;;;;;;;;11.10;99.90;;;;;;5093596;28;19924;-75
2022/01/02 06:25:38;;;;;;;;;;;11.00;99.90;;;;;;5093516;28;19974;-76
2022/01/02 06:28:04;;;;;;;;;;;11.10;99.90;;;;;;5093832;28;19920;-76
2022/01/02 06:30:30;;;;;;;;;;;11.10;99.90;;;;;;5093680;28;19924;-74
2022/01/02 06:32:55;;;;;;;;;;;11.10;99.90;;;;;;5093729;28;19999;-74
2022/01/02 06:35:25;;;;;;;;;;;11.30;99.90;;;;;;5093651;28;19920;-75
2022/01/02 06:37:51;;;;;;;;;;;10.60;99.90;;;;;;5093402;28;20396;-74
2022/01/02 06:40:17;;;;;;;;;;;11.20;99.90;;;;;;5093533;28;19926;-76
2022/01/02 06:42:43;;;;;;;;;;;11.20;99.90;;;;;;5092532;28;20026;-74
2022/01/02 06:45:08;;;;;;;;;;;11.20;99.90;;;;;;5092728;28;19920;-76
2022/01/02 06:47:34;;;;;;;;;;;11.20;99.90;;;;;;5075741;28;19920;-76
2022/01/02 06:50:00;;;;;;;;;;;11.20;99.90;;;;;;5093435;28;19976;-76
2022/01/02 06:52:25;;;;;;;;;;;11.30;99.90;;;;;;5093228;28;19945;-76
2022/01/02 06:54:54;;;;;;;;;;;11.90;99.90;;;;;;5092032;28;19927;-75
2022/01/02 06:57:20;;;;;;;;;;;11.30;99.90;;;;;;5093292;28;19931;-75
2022/01/02 06:59:46;;;;;;;;;;;11.40;99.90;;;;;;5096508;28;19920;-76
2022/01/02 07:02:12;;;;;;;;;;;11.40;99.90;;;;;;5097471;28;19926;-75
2022/01/02 07:04:37;;;;;;;;;;;11.40;99.90;;;;;;5097291;28;19926;-76
2022/01/02 07:07:03;;;;;;;;;;;11.40;99.90;;;;;;5097105;28;20371;-75
2022/01/02 07:09:31;;;;;;;;;;;11.40;99.90;;;;;;5097032;28;20278;-74
2022/01/02 07:11:57;;;;;;;;;;;11.50;99.90;;;;;;5095742;28;20014;-74
2022/01/02 07:14:26;;;;;;;;;;;10.40;99.90;;;;;;5097131;28;20010;-74
2022/01/02 07:16:52;;;;;;;;;;;11.50;99.90;;;;;;5097144;28;20310;-77
2022/01/02 07:19:18;;;;;;;;;;;11.50;99.90;;;;;;5097112;28;19920;-74
2022/01/02 07:21:43;;;;;;;;;;;11.50;99.90;;;;;;5096755;28;19919;-76
2022/01/02 07:24:09;;;;;;;;;;;11.50;99.90;;;;;;5096692;28;19924;-75
2022/01/02 07:26:34;;;;;;;;;;;11.60;99.90;;;;;;5096724;28;19927;-74
2022/01/02 07:29:00;;;;;;;;;;;11.80;99.90;;;;;;5097066;28;20458;-74
2022/01/02 07:31:26;;;;;;;;;;;11.60;99.90;;;;;;5096855;28;20322;-75
2022/01/02 07:33:51;;;;;;;;;;;11.60;99.90;;;;;;5096756;28;19920;-76
2022/01/02 07:36:17;;;;;;;;;;;11.60;99.90;;;;;;5096664;28;19920;-75
2022/01/02 07:38:42;;;;;;;;;;;11.70;99.90;;;;;;5096348;28;19920;-75
2022/01/02 07:41:08;;;;;;;;;;;11.60;99.90;;;;;;5096429;28;20375;-77
2022/01/02 07:43:33;;;;;;;;;;;11.70;99.90;;;;;;5096416;28;19985;-74
2022/01/02 07:45:59;;;;;;;;;;;11.60;99.90;;;;;;5096343;28;19930;-74
2022/01/02 07:48:25;;;;;;;;;;;11.20;99.90;;;;;;5096441;28;19982;-75
2022/01/02 07:50:50;;;;;;;;;;;11.60;99.90;;;;;;5096253;28;19919;-75
2022/01/02 07:53:16;;;;;;;;;;;11.60;99.90;;;;;;5095976;28;19923;-74
2022/01/02 07:55:43;;;;;;;;;;;11.50;99.90;;;;;;5096116;28;19920;-75
2022/01/02 07:58:09;;;;;;;;;;;11.50;99.90;;;;;;5096101;28;19927;-75
2022/01/02 08:00:34;;;;;;;;;;;11.50;99.90;;;;;;5095072;28;19920;-76
2022/01/02 08:03:00;;;;;;;;;;;11.50;99.90;;;;;;5095896;28;20307;-75
2022/01/02 08:05:25;;;;;;;;;;;11.90;99.90;;;;;;5095845;28;19927;-77
2022/01/02 08:07:51;;;;;;;;;;;11.50;99.90;;;;;;5094854;28;19920;-74
2022/01/02 08:10:17;;;;;;;;;;;11.40;99.90;;;;;;5094960;28;19920;-76
2022/01/02 08:12:42;;;;;;;;;;;11.40;99.90;;;;;;5095511;28;20028;-75
2022/01/02 08:15:08;;;;;;;;;;;11.50;99.90;;;;;;5095934;28;19920;-75
2022/01/02 08:17:34;;;;;;;;;;;11.50;99.90;;;;;;5094752;28;19946;-77
2022/01/02 08:20:00;;;;;;;;;;;11.40;99.90;;;;;;5095741;28;19923;-76
2022/01/02 08:22:26;;;;;;;;;;;11.40;99.90;;;;;;5095609;28;19965;-76
2022/01/02 08:24:51;;;;;;;;;;;11.40;99.90;;;;;;5095480;28;19920;-75
2022/01/02 08:27:17;;;;;;;;;;;11.40;99.90;;;;;;5095519;28;20006;-76
2022/01/02 08:29:43;;;;;;;;;;;11.40;99.90;;;;;;5095152;28;20033;-75
2022/01/02 08:32:08;;;;;;;;;;;11.40;99.90;;;;;;5095637;28;19973;-76
2022/01/02 08:34:34;;;;;;;;;;;11.40;99.90;;;;;;5095599;28;19927;-76
2022/01/02 08:36:59;;;;;;;;;;;11.40;99.90;;;;;;5095342;28;19924;-76
2022/01/02 08:39:25;;;;;;;;;;;11.40;99.90;;;;;;5095074;28;19966;-74
2022/01/02 08:41:50;;;;;;;;;;;11.40;99.90;;;;;;5095235;28;19920;-75
2022/01/02 08:44:16;;;;;;;;;;;11.40;99.90;;;;;;5095141;28;19920;-75
2022/01/02 08:46:41;;;;;;;;;;;11.30;99.90;;;;;;5093935;28;19920;-75
2022/01/02 08:49:07;;;;;;;;;;;11.40;99.90;;;;;;5095123;28;19920;-74
2022/01/02 08:51:33;;;;;;;;;;;11.40;99.90;;;;;;5093786;28;19927;-74
2022/01/02 08:53:58;;;;;;;;;;;12.50;99.90;;;;;;5094559;28;20068;-76
2022/01/02 08:56:24;;;;;;;;;;;11.40;99.90;;;;;;5095094;28;19965;-76
2022/01/02 08:58:49;;;;;;;;;;;11.40;99.90;;;;;;5094852;28;19977;-77
2022/01/02 09:01:15;;;;;;;;;;;11.40;99.90;;;;;;5093799;28;19923;-76
2022/01/02 09:03:40;;;;;;;;;;;11.40;99.90;;;;;;5094950;28;20010;-76
2022/01/02 09:06:06;;;;;;;;;;;11.40;99.90;;;;;;5093951;28;19927;-77
2022/01/02 09:08:32;;;;;;;;;;;11.60;99.90;;;;;;5093564;28;19920;-79
2022/01/02 09:10:57;;;;;;;;;;;11.40;99.90;;;;;;5094630;28;19923;-75
2022/01/02 09:13:26;;;;;;;;;;;11.30;99.90;;;;;;5094600;28;19970;-76
2022/01/02 09:15:52;;;;;;;;;;;11.30;99.90;;;;;;5092870;28;19919;-74
2022/01/02 09:18:17;;;;;;;;;;;11.30;99.90;;;;;;5094381;28;20359;-77
2022/01/02 09:20:43;;;;;;;;;;;11.40;99.90;;;;;;5094678;28;19920;-76
2022/01/02 09:23:09;;;;;;;;;;;11.30;99.90;;;;;;5093189;28;19970;-75
2022/01/02 09:25:34;;;;;;;;;;;11.30;99.90;;;;;;5094388;28;20018;-75
2022/01/02 09:28:00;;;;;;;;;;;11.30;99.90;;;;;;5094132;28;20015;-75
2022/01/02 09:30:26;;;;;;;;;;;11.30;99.90;;;;;;5092876;28;19982;-74
2022/01/02 09:32:51;;;;;;;;;;;11.30;99.90;;;;;;5075939;28;19959;-76
2022/01/02 09:35:17;;;;;;;;;;;11.30;99.90;;;;;;5094495;28;20454;-77
2022/01/02 09:37:43;;;;;;;;;;;11.30;99.90;;;;;;5094223;28;19920;-76
2022/01/02 09:40:08;;;;;;;;;;;11.30;99.90;;;;;;5093241;28;20015;-74
2022/01/02 09:42:34;;;;;;;;;;;11.30;99.90;;;;;;5093159;28;19920;-76
2022/01/02 09:45:00;;;;;;;;;;;10.70;99.90;;;;;;5094124;28;20010;-76
2022/01/02 09:47:26;;;;;;;;;;;11.80;99.90;;;;;;5093996;28;19950;-76
2022/01/02 09:49:51;;;;;;;;;;;10.20;99.90;;;;;;5092635;28;19950;-75
2022/01/02 09:52:37;;;;;;;;;;;11.30;99.90;;;;;;5093605;28;19920;-75
2022/01/02 09:55:03;;;;;;;;;;;11.50;99.90;;;;;;5093986;28;19920;-75
2022/01/02 09:57:29;;;;;;;;;;;11.40;99.90;;;;;;5093913;28;19934;-75
2022/01/02 09:59:56;;;;;;;;;;;11.90;99.90;;;;;;5093508;28;20023;-76
2022/01/02 10:02:21;;;;;;;;;;;11.50;99.90;;;;;;5094030;28;19927;-75
2022/01/02 10:04:47;;;;;;;;;;;11.50;99.90;;;;;;5092673;28;20003;-76
2022/01/02 10:07:44;;;;;;;;;;;11.50;99.90;;;;;;5093803;28;20442;-77
2022/01/02 10:10:11;;;;;;;;;;;11.50;99.90;;;;;;5092711;28;20359;-76
2022/01/02 10:12:37;;;;;;;;;;;11.50;99.90;;;;;;5093526;28;19981;-73
2022/01/02 10:15:05;;;;;;;;;;;11.50;99.90;;;;;;5092659;28;20389;-75
2022/01/02 10:17:57;;;;;;;;;;;11.10;99.90;;;;;;5093813;28;19934;-75
2022/01/02 10:20:33;;;;;;;;;;;11.50;99.90;;;;;;5089979;28;19964;-74
2022/01/02 10:23:19;;;;;;;;;;;11.60;99.90;;;;;;5093280;28;20006;-75
2022/01/02 10:25:56;;;;;;;;;;;11.60;99.90;;;;;;5093197;28;19958;-74
2022/01/02 10:28:41;;;;;;;;;;;11.60;99.90;;;;;;5093315;28;19920;-75
2022/01/02 10:31:13;;;;;;;;;;;11.60;99.90;;;;;;5092827;28;19926;-76
2022/01/02 10:33:53;;;;;;;;;;;11.60;99.90;;;;;;5094715;28;19924;-75
2022/01/02 10:36:25;;;;;;;;;;;11.60;99.90;;;;;;5096769;28;19920;-75
2022/01/02 10:39:01;;;;;;;;;;;11.60;99.90;;;;;;5097503;28;19920;-76
2022/01/02 10:41:29;;;;;;;;;;;11.70;99.90;;;;;;5097379;28;20390;-76
2022/01/02 10:44:15;;;;;;;;;;;11.60;99.90;;;;;;5097419;28;19920;-76
2022/01/02 10:47:02;;;;;;;;;;;11.70;99.90;;;;;;5097431;28;19919;-75
2022/01/02 10:49:46;;;;;;;;;;;11.70;99.90;;;;;;5086217;28;19920;-76
2022/01/02 10:52:23;;;;;;;;;;;11.70;99.90;;;;;;5096820;28;20371;-76
2022/01/02 10:54:49;;;;;;;;;;;11.70;99.90;;;;;;5096963;28;20003;-74
2022/01/02 10:57:16;;;;;;;;;;;11.70;99.90;;;;;;5097274;28;20412;-74
2022/01/02 10:59:43;;;;;;;;;;;11.70;99.90;;;;;;5096994;28;19920;-75
2022/01/02 11:02:12;;;;;;;;;;;11.70;99.90;;;;;;5095880;28;19977;-74
2022/01/02 11:04:46;;;;;;;;;;;11.80;99.90;;;;;;5129930;27;19927;-75
2022/01/02 11:07:14;;;;;;;;;;;11.80;99.90;;;;;;5129676;27;20405;-76
2022/01/02 11:09:42;;;;;;;;;;;11.80;99.90;;;;;;5112714;28;20031;-75
2022/01/02 11:12:08;;;;;;;;;;;11.70;99.90;;;;;;5096687;28;19924;-75
2022/01/02 11:14:34;;;;;;;;;;;11.80;99.90;;;;;;5096906;28;20307;-74
2022/01/02 11:17:01;;;;;;;;;;;11.80;99.90;;;;;;5096747;28;19924;-75
2022/01/02 11:19:27;;;;;;;;;;;11.80;99.90;;;;;;5096716;28;19943;-73
2022/01/02 11:21:55;;;;;;;;;;;11.80;99.90;;;;;;5095320;28;19970;-75
2022/01/02 11:24:24;;;;;;;;;;;11.80;99.90;;;;;;5096596;28;19919;-75
2022/01/02 11:26:56;;;;;;;;;;;11.80;99.90;;;;;;5095636;28;20023;-74
2022/01/02 11:29:26;;;;;;;;;;;11.80;99.90;;;;;;5096326;28;19920;-74
2022/01/02 11:31:52;;;;;;;;;;;12.00;99.90;;;;;;5096270;28;19961;-73
2022/01/02 11:34:22;;;;;;;;;;;12.00;99.90;;;;;;5096359;28;19920;-74
2022/01/02 11:36:48;;;;;;;;;;;12.00;99.90;;;;;;5096531;28;19920;-74
2022/01/02 11:39:14;;;;;;;;;;;12.10;99.90;;;;;;5096571;28;19931;-74
2022/01/02 11:41:43;;;;;;;;;;;12.00;99.90;;;;;;5096314;28;20383;-73
2022/01/02 11:44:09;;;;;;;;;;;12.10;99.90;;;;;;5096037;28;19920;-73
2022/01/02 11:46:42;;;;;;;;;;;12.00;99.90;;;;;;5095184;28;19963;-74
2022/01/02 11:49:13;;;;;;;;;;;12.00;99.90;;;;;;5094596;28;19919;-73
2022/01/02 11:51:49;;;;;;;;;;;12.00;99.90;;;;;;5094910;28;20329;-73
2022/01/02 11:54:39;;;;;;;;;;;12.00;99.90;;;;;;5096013;28;19945;-73
2022/01/02 11:57:11;;;;;;;;;;;12.00;99.90;;;;;;5096156;28;19920;-73
2022/01/02 11:59:40;;;;;;;;;;;12.00;99.90;;;;;;5095729;28;19920;-74
2022/01/02 12:02:14;;;;;;;;;;;12.00;99.90;;;;;;5095934;28;19955;-73
2022/01/02 12:07:32;;;;;;;;;;;12.00;99.90;;;;;;5094846;28;19962;-73
2022/01/02 12:10:21;;;;;;;;;;;12.00;99.90;;;;;;5095403;28;19927;-74
2022/01/02 12:12:55;;;;;;;;;;;12.00;99.90;;;;;;5033357;28;20319;-74
2022/01/02 12:15:21;;;;;;;;;;;12.00;99.90;;;;;;5033094;28;19943;-73
2022/01/02 12:18:06;;;;;;;;;;;12.00;99.90;;;;;;5033347;28;20391;-73
2022/01/02 12:21:00;;;;;;;;;;;12.00;99.90;;;;;;5016793;28;19921;-73
2022/01/02 12:23:28;;;;;;;;;;;12.00;99.90;;;;;;4996754;28;20007;-73
2022/01/02 12:25:56;;;;;;;;;;;11.90;99.90;;;;;;5013499;28;19922;-73
2022/01/02 12:28:22;;;;;;;;;;;11.90;99.90;;;;;;5013250;28;19948;-73
2022/01/02 12:30:48;;;;;;;;;;;11.90;99.90;;;;;;5013172;28;19922;-73
2022/01/02 12:33:27;;;;;;;;;;;11.90;99.90;;;;;;5013320;28;19926;-73
2022/01/02 12:35:53;;;;;;;;;;;12.00;99.90;;;;;;5013322;28;20396;-73
2022/01/02 12:38:18;;;;;;;;;;;12.00;99.90;;;;;;5013064;28;19921;-73
2022/01/02 12:40:49;;;;;;;;;;;12.00;99.90;;;;;;5013230;28;19922;-73
2022/01/02 12:43:22;;;;;;;;;;;12.00;99.90;;;;;;4996747;28;19925;-73
2022/01/02 12:45:52;;;;;;;;;;;12.00;99.90;;;;;;5013046;28;20447;-73
2022/01/02 12:48:30;;;;;;;;;;;12.00;99.90;;;;;;5013168;28;19927;-73
2022/01/02 12:51:06;;;;;;;;;;;11.90;99.90;;;;;;5070494;28;19927;-73
2022/01/02 12:53:32;;;;;;;;;;;11.90;99.90;;;;;;5072124;28;19920;-74
2022/01/02 12:55:58;;;;;;;;;;;11.90;99.90;;;;;;5072178;28;20346;-72
2022/01/02 12:58:23;;;;;;;;;;;11.90;99.90;;;;;;5055096;28;20354;-73
2022/01/02 13:00:49;;;;;;;;;;;12.00;99.90;;;;;;5089641;28;19966;-73
2022/01/02 13:03:16;;;;;;;;;;;11.90;99.90;;;;;;5094996;28;19920;-73
2022/01/02 13:05:48;;;;;;;;;;;11.80;99.90;;;;;;5094881;28;19973;-74
2022/01/02 13:08:21;;;;;;;;;;;11.90;99.90;;;;;;5094589;28;19923;-73
2022/01/02 13:10:47;;;;;;;;;;;11.90;99.90;;;;;;5094576;28;20442;-72
2022/01/02 13:13:25;;;;;;;;;;;11.90;99.90;;;;;;5094220;28;20008;-72
2022/01/02 13:15:51;;;;;;;;;;;11.80;99.90;;;;;;5094764;28;19943;-73
2022/01/02 13:18:17;;;;;;;;;;;11.90;99.90;;;;;;5094639;28;20390;-72
2022/01/02 13:20:43;;;;;;;;;;;11.80;99.90;;;;;;5094471;28;19920;-73
2022/01/02 13:23:08;;;;;;;;;;;11.80;99.90;;;;;;5126986;27;20416;-73
2022/01/02 13:25:36;;;;;;;;;;;11.80;99.90;;;;;;5094403;28;19963;-73
2022/01/02 13:28:01;;;;;;;;;;;11.70;99.90;;;;;;5094593;28;19963;-74
2022/01/02 13:30:29;;;;;;;;;;;11.70;99.90;;;;;;5094290;28;19994;-74
2022/01/02 13:32:55;;;;;;;;;;;11.70;99.90;;;;;;5094407;28;19920;-74
2022/01/02 13:35:25;;;;;;;;;;;11.70;99.90;;;;;;5094378;28;19994;-75
2022/01/02 13:37:59;;;;;;;;;;;11.60;99.90;;;;;;5094127;28;19920;-74
2022/01/02 13:40:30;;;;;;;;;;;11.60;99.90;;;;;;5093954;28;19920;-75
2022/01/02 13:42:56;;;;;;;;;;;11.50;99.90;;;;;;5094290;28;19971;-73
2022/01/02 13:45:24;;;;;;;;;;;11.50;99.90;;;;;;5093163;28;19928;-74
2022/01/02 13:47:51;;;;;;;;;;;10.60;99.90;;;;;;5094084;28;19920;-74
2022/01/02 13:50:33;;;;;;;;;;;11.30;99.90;;;;;;5094036;28;19973;-75
2022/01/02 13:53:01;;;;;;;;;;;11.30;99.90;;;;;;5093701;28;19926;-74
2022/01/02 13:55:31;;;;;;;;;;;11.30;99.90;;;;;;5092974;28;20336;-73
2022/01/02 13:57:58;;;;;;;;;;;11.30;99.90;;;;;;5092974;28;19974;-74
2022/01/02 14:00:25;;;;;;;;;;;11.20;99.90;;;;;;5092427;28;20382;-73
2022/01/02 14:02:54;;;;;;;;;;;11.20;99.90;;;;;;5093898;28;19965;-75
2022/01/02 14:05:21;;;;;;;;;;;11.10;99.90;;;;;;5093904;28;19924;-73
2022/01/02 14:07:46;;;;;;;;;;;11.10;99.90;;;;;;5093241;28;19920;-73
2022/01/02 14:10:14;;;;;;;;;;;11.10;99.90;;;;;;5092564;28;19924;-73
2022/01/02 14:12:39;;;;;;;;;;;11.10;99.90;;;;;;5093999;28;20018;-73
2022/01/02 14:15:15;;;;;;;;;;;11.00;99.90;;;;;;5093787;28;19959;-74
2022/01/02 14:17:45;;;;;;;;;;;11.00;99.90;;;;;;5093771;28;19927;-74
2022/01/02 14:20:13;;;;;;;;;;;10.90;99.90;;;;;;5093615;28;19920;-74
2022/01/02 14:22:41;;;;;;;;;;;10.90;99.90;;;;;;5092888;28;19927;-73
2022/01/02 14:25:07;;;;;;;;;;;10.90;99.90;;;;;;5092446;28;19943;-73
2022/01/02 14:27:32;;;;;;;;;;;10.80;99.90;;;;;;5092745;28;20367;-74
2022/01/02 14:29:59;;;;;;;;;;;11.20;99.90;;;;;;5093353;28;19920;-74
2022/01/02 14:32:25;;;;;;;;;;;10.80;99.90;;;;;;5093700;28;19920;-75
2022/01/02 14:34:51;;;;;;;;;;;10.70;99.90;;;;;;5093486;28;20286;-74
2022/01/02 14:37:18;;;;;;;;;;;10.70;99.90;;;;;;5093488;28;19924;-74